sensor_id;sensor_type;location;lat;lon;timestamp;temperature;humidity
59651;DHT22;45954;49.768;8.636;2023-03-14T00:00:08;11.70;99.90
59651;DHT22;45954;49.768;8.636;2023-03-14T00:02:36;11.80;99.90
59651;DHT22;45954;49.768;8.636;2023-03-14T00:05:04;11.70;99.90
59651;DHT22;45954;49.768;8.636;2023-03-14T00:07:33;11.80;99.90
59651;DHT22;45954;49.768;8.636;2023-03-14T00:10:07;11.80;99.90
59651;DHT22;45954;49.768;8.636;2023-03-14T00:12:34;11.80;99.90
59651;DHT22;45954;49.768;8.636;2023-03-14T00:15:00;11.80;99.90
59651;DHT22;45954;49.768;8.636;2023-03-14T00:17:29;11.90;99.90
59651;DHT22;45954;49.768;8.636;2023-03-14T00:19:56;11.90;99.90
59651;DHT22;45954;49.768;8.636;2023-03-14T00:22:22;11.80;99.90
59651;DHT22;45954;49.768;8.636;2023-03-14T00:24:47;11.80;99.90
59651;DHT22;45954;49.768;8.636;2023-03-14T00:27:13;11.90;99.90
59651;DHT22;45954;49.768;8.636;2023-03-14T00:29:39;11.90;99.90
59651;DHT22;45954;49.768;8.636;2023-03-14T00:32:05;11.80;99.90
59651;DHT22;45954;49.768;8.636;2023-03-14T00:34:31;11.80;99.90
59651;DHT22;45954;49.768;8.636;2023-03-14T00:36:59;11.90;99.90
59651;DHT22;45954;49.768;8.636;2023-03-14T00:39:24;11.80;99.90
59651;DHT22;45954;49.768;8.636;2023-03-14T00:41:50;11.80;99.90
59651;DHT22;45954;49.768;8.636;2023-03-14T00:44:16;11.90;99.90
59651;DHT22;45954;49.768;8.636;2023-03-14T00:46:42;11.90;99.90
59651;DHT22;45954;49.768;8.636;2023-03-14T00:49:07;11.80;99.90
59651;DHT22;45954;49.768;8.636;2023-03-14T00:51:33;11.80;99.90
59651;DHT22;45954;49.768;8.636;2023-03-14T00:54:00;11.90;99.90
59651;DHT22;45954;49.768;8.636;2023-03-14T00:56:26;11.90;99.90
59651;DHT22;45954;49.768;8.636;2023-03-14T00:58:56;11.80;99.90
59651;DHT22;45954;49.768;8.636;2023-03-14T01:01:22;11.80;99.90
59651;DHT22;45954;49.768;8.636;2023-03-14T01:03:53;11.90;99.90
59651;DHT22;45954;49.768;8.636;2023-03-14T01:06:24;11.90;99.90
59651;DHT22;45954;49.768;8.636;2023-03-14T01:08:51;11.80;99.90
59651;DHT22;45954;49.768;8.636;2023-03-14T01:11:22;11.80;99.90
59651;DHT22;45954;49.768;8.636;2023-03-14T01:13:52;11.90;99.90
59651;DHT22;45954;49.768;8.636;2023-03-14T01:16:21;11.90;99.90
59651;DHT22;45954;49.768;8.636;2023-03-14T01:18:49;11.90;99.90
59651;DHT22;45954;49.768;8.636;2023-03-14T01:21:20;11.90;99.90
59651;DHT22;45954;49.768;8.636;2023-03-14T01:23:51;11.90;99.90
59651;DHT22;45954;49.768;8.636;2023-03-14T01:26:21;11.90;99.90
59651;DHT22;45954;49.768;8.636;2023-03-14T01:28:50;11.90;99.90
59651;DHT22;45954;49.768;8.636;2023-03-14T01:31:17;12.00;99.90
59651;DHT22;45954;49.768;8.636;2023-03-14T01:33:44;12.10;99.90
59651;DHT22;45954;49.768;8.636;2023-03-14T01:36:11;12.00;99.90
59651;DHT22;45954;49.768;8.636;2023-03-14T01:38:39;11.90;99.90
59651;DHT22;45954;49.768;8.636;2023-03-14T01:41:08;11.90;99.90
59651;DHT22;45954;49.768;8.636;2023-03-14T01:43:37;11.90;99.90
59651;DHT22;45954;49.768;8.636;2023-03-14T01:48:36;11.90;99.90
59651;DHT22;45954;49.768;8.636;2023-03-14T01:51:08;11.90;99.90
59651;DHT22;45954;49.768;8.636;2023-03-14T01:53:39;11.90;99.90
59651;DHT22;45954;49.768;8.636;2023-03-14T01:56:07;11.90;99.90
59651;DHT22;45954;49.768;8.636;2023-03-14T01:58:35;11.90;99.90
59651;DHT22;45954;49.768;8.636;2023-03-14T02:01:03;11.80;99.90
59651;DHT22;45954;49.768;8.636;2023-03-14T02:03:36;11.80;99.90
59651;DHT22;45954;49.768;8.636;2023-03-14T02:06:07;11.70;99.90
59651;DHT22;45954;49.768;8.636;2023-03-14T02:08:35;11.80;99.90
59651;DHT22;45954;49.768;8.636;2023-03-14T02:11:04;11.80;99.90
59651;DHT22;45954;49.768;8.636;2023-03-14T02:13:30;11.70;99.90
59651;DHT22;45954;49.768;8.636;2023-03-14T02:15:56;11.80;99.90
59651;DHT22;45954;49.768;8.636;2023-03-14T02:18:21;11.70;99.90
59651;DHT22;45954;49.768;8.636;2023-03-14T02:21:09;11.80;99.90
59651;DHT22;45954;49.768;8.636;2023-03-14T02:23:59;11.70;99.90
59651;DHT22;45954;49.768;8.636;2023-03-14T02:29:29;11.80;99.90
59651;DHT22;45954;49.768;8.636;2023-03-14T02:31:56;11.90;99.90
59651;DHT22;45954;49.768;8.636;2023-03-14T02:34:23;11.80;99.90
59651;DHT22;45954;49.768;8.636;2023-03-14T02:36:50;11.80;99.90
59651;DHT22;45954;49.768;8.636;2023-03-14T02:39:24;11.70;99.90
59651;DHT22;45954;49.768;8.636;2023-03-14T02:41:55;11.70;99.90
59651;DHT22;45954;49.768;8.636;2023-03-14T02:44:20;11.70;99.90
59651;DHT22;45954;49.768;8.636;2023-03-14T02:46:46;11.60;99.90
59651;DHT22;45954;49.768;8.636;2023-03-14T02:49:15;11.60;99.90
59651;DHT22;45954;49.768;8.636;2023-03-14T02:51:43;11.60;99.90
59651;DHT22;45954;49.768;8.636;2023-03-14T02:54:10;11.70;99.90
59651;DHT22;45954;49.768;8.636;2023-03-14T02:56:36;11.70;99.90
59651;DHT22;45954;49.768;8.636;2023-03-14T02:59:06;11.70;99.90
59651;DHT22;45954;49.768;8.636;2023-03-14T03:01:33;11.80;99.90
59651;DHT22;45954;49.768;8.636;2023-03-14T03:03:59;11.70;99.90
59651;DHT22;45954;49.768;8.636;2023-03-14T03:06:25;11.70;99.90
59651;DHT22;45954;49.768;8.636;2023-03-14T03:08:52;11.80;99.90
59651;DHT22;45954;49.768;8.636;2023-03-14T03:11:18;11.70;99.90
59651;DHT22;45954;49.768;8.636;2023-03-14T03:13:44;11.70;99.90
59651;DHT22;45954;49.768;8.636;2023-03-14T03:16:10;11.70;99.90
59651;DHT22;45954;49.768;8.636;2023-03-14T03:18:39;11.70;99.90
59651;DHT22;45954;49.768;8.636;2023-03-14T03:21:05;11.70;99.90
59651;DHT22;45954;49.768;8.636;2023-03-14T03:23:34;11.70;99.90
59651;DHT22;45954;49.768;8.636;2023-03-14T03:26:00;11.70;99.90
59651;DHT22;45954;49.768;8.636;2023-03-14T03:28:27;11.70;99.90
59651;DHT22;45954;49.768;8.636;2023-03-14T03:30:53;11.70;99.90
59651;DHT22;45954;49.768;8.636;2023-03-14T03:33:19;11.70;99.90
59651;DHT22;45954;49.768;8.636;2023-03-14T03:35:47;11.80;99.90
59651;DHT22;45954;49.768;8.636;2023-03-14T03:38:15;11.70;99.90
59651;DHT22;45954;49.768;8.636;2023-03-14T03:40:42;11.70;99.90
59651;DHT22;45954;49.768;8.636;2023-03-14T03:43:08;11.70;99.90
59651;DHT22;45954;49.768;8.636;2023-03-14T03:45:34;11.70;99.90
59651;DHT22;45954;49.768;8.636;2023-03-14T03:48:00;11.70;99.90
59651;DHT22;45954;49.768;8.636;2023-03-14T03:50:26;11.70;99.90
59651;DHT22;45954;49.768;8.636;2023-03-14T03:52:52;11.70;99.90
59651;DHT22;45954;49.768;8.636;2023-03-14T03:55:18;11.70;99.90
59651;DHT22;45954;49.768;8.636;2023-03-14T03:57:44;11.60;99.90
59651;DHT22;45954;49.768;8.636;2023-03-14T04:00:11;11.70;99.90
59651;DHT22;45954;49.768;8.636;2023-03-14T04:02:38;11.80;99.90
59651;DHT22;45954;49.768;8.636;2023-03-14T04:05:04;11.70;99.90
59651;DHT22;45954;49.768;8.636;2023-03-14T04:07:32;11.70;99.90
59651;DHT22;45954;49.768;8.636;2023-03-14T04:09:58;11.80;99.90
59651;DHT22;45954;49.768;8.636;2023-03-14T04:12:24;11.80;99.90
59651;DHT22;45954;49.768;8.636;2023-03-14T04:14:50;11.70;99.90
59651;DHT22;45954;49.768;8.636;2023-03-14T04:17:16;11.50;99.90
59651;DHT22;45954;49.768;8.636;2023-03-14T04:19:42;11.50;99.90
59651;DHT22;45954;49.768;8.636;2023-03-14T04:22:08;11.60;99.90
59651;DHT22;45954;49.768;8.636;2023-03-14T04:24:35;11.60;99.90
59651;DHT22;45954;49.768;8.636;2023-03-14T04:27:00;11.70;99.90
59651;DHT22;45954;49.768;8.636;2023-03-14T04:29:26;11.60;99.90
59651;DHT22;45954;49.768;8.636;2023-03-14T04:31:52;11.50;99.90
59651;DHT22;45954;49.768;8.636;2023-03-14T04:34:18;11.60;99.90
59651;DHT22;45954;49.768;8.636;2023-03-14T04:36:44;11.60;99.90
59651;DHT22;45954;49.768;8.636;2023-03-14T04:39:09;11.70;99.90
59651;DHT22;45954;49.768;8.636;2023-03-14T04:41:35;11.60;99.90
59651;DHT22;45954;49.768;8.636;2023-03-14T04:44:01;11.70;99.90
59651;DHT22;45954;49.768;8.636;2023-03-14T04:46:27;11.60;99.90
59651;DHT22;45954;49.768;8.636;2023-03-14T04:48:53;11.70;99.90
59651;DHT22;45954;49.768;8.636;2023-03-14T04:51:19;11.80;99.90
59651;DHT22;45954;49.768;8.636;2023-03-14T04:53:44;11.70;99.90
59651;DHT22;45954;49.768;8.636;2023-03-14T04:56:10;11.70;99.90
59651;DHT22;45954;49.768;8.636;2023-03-14T04:58:38;11.70;99.90
59651;DHT22;45954;49.768;8.636;2023-03-14T05:01:05;11.70;99.90
59651;DHT22;45954;49.768;8.636;2023-03-14T05:03:31;11.70;99.90
59651;DHT22;45954;49.768;8.636;2023-03-14T05:05:57;11.70;99.90
59651;DHT22;45954;49.768;8.636;2023-03-14T05:08:24;11.70;99.90
59651;DHT22;45954;49.768;8.636;2023-03-14T05:10:56;11.60;99.90
59651;DHT22;45954;49.768;8.636;2023-03-14T05:13:23;11.60;99.90
59651;DHT22;45954;49.768;8.636;2023-03-14T05:15:49;11.70;99.90
59651;DHT22;45954;49.768;8.636;2023-03-14T05:18:21;11.70;99.90
59651;DHT22;45954;49.768;8.636;2023-03-14T05:20:46;11.70;99.90
59651;DHT22;45954;49.768;8.636;2023-03-14T05:23:16;11.70;99.90
59651;DHT22;45954;49.768;8.636;2023-03-14T05:25:43;11.80;99.90
59651;DHT22;45954;49.768;8.636;2023-03-14T05:28:10;11.60;99.90
59651;DHT22;45954;49.768;8.636;2023-03-14T05:30:35;11.60;99.90
59651;DHT22;45954;49.768;8.636;2023-03-14T05:33:01;11.60;99.90
59651;DHT22;45954;49.768;8.636;2023-03-14T05:35:27;11.70;99.90
59651;DHT22;45954;49.768;8.636;2023-03-14T05:37:53;11.60;99.90
59651;DHT22;45954;49.768;8.636;2023-03-14T05:40:19;11.70;99.90
59651;DHT22;45954;49.768;8.636;2023-03-14T05:42:45;11.70;99.90
59651;DHT22;45954;49.768;8.636;2023-03-14T05:45:11;11.70;99.90
59651;DHT22;45954;49.768;8.636;2023-03-14T05:47:36;11.60;99.90
59651;DHT22;45954;49.768;8.636;2023-03-14T05:50:02;11.60;99.90
59651;DHT22;45954;49.768;8.636;2023-03-14T05:52:28;11.60;99.90
59651;DHT22;45954;49.768;8.636;2023-03-14T05:54:54;11.40;99.90
59651;DHT22;45954;49.768;8.636;2023-03-14T05:57:20;11.50;99.90
59651;DHT22;45954;49.768;8.636;2023-03-14T05:59:46;11.50;99.90
59651;DHT22;45954;49.768;8.636;2023-03-14T06:02:12;11.50;99.90
59651;DHT22;45954;49.768;8.636;2023-03-14T06:04:38;11.50;99.90
59651;DHT22;45954;49.768;8.636;2023-03-14T06:07:04;11.40;99.90
59651;DHT22;45954;49.768;8.636;2023-03-14T06:09:30;11.40;99.90
59651;DHT22;45954;49.768;8.636;2023-03-14T06:11:56;11.40;99.90
59651;DHT22;45954;49.768;8.636;2023-03-14T06:14:22;11.50;99.90
59651;DHT22;45954;49.768;8.636;2023-03-14T06:16:47;11.50;99.90
59651;DHT22;45954;49.768;8.636;2023-03-14T06:19:14;11.40;99.90
59651;DHT22;45954;49.768;8.636;2023-03-14T06:21:40;11.50;99.90
59651;DHT22;45954;49.768;8.636;2023-03-14T06:24:06;11.50;99.90
59651;DHT22;45954;49.768;8.636;2023-03-14T06:26:32;11.40;99.90
59651;DHT22;45954;49.768;8.636;2023-03-14T06:28:58;11.40;99.90
59651;DHT22;45954;49.768;8.636;2023-03-14T06:31:30;11.50;99.90
59651;DHT22;45954;49.768;8.636;2023-03-14T06:33:56;11.40;99.90
59651;DHT22;45954;49.768;8.636;2023-03-14T06:36:22;11.40;99.90
59651;DHT22;45954;49.768;8.636;2023-03-14T06:38:48;11.30;99.90
59651;DHT22;45954;49.768;8.636;2023-03-14T06:41:14;11.30;99.90
59651;DHT22;45954;49.768;8.636;2023-03-14T06:43:40;11.20;99.90
59651;DHT22;45954;49.768;8.636;2023-03-14T06:46:06;11.10;99.90
59651;DHT22;45954;49.768;8.636;2023-03-14T06:48:32;11.10;99.90
59651;DHT22;45954;49.768;8.636;2023-03-14T06:50:57;11.00;99.90
59651;DHT22;45954;49.768;8.636;2023-03-14T06:53:23;11.10;99.90
59651;DHT22;45954;49.768;8.636;2023-03-14T06:55:50;11.10;99.90
59651;DHT22;45954;49.768;8.636;2023-03-14T06:58:16;11.10;99.90
59651;DHT22;45954;49.768;8.636;2023-03-14T07:00:42;11.00;99.90
59651;DHT22;45954;49.768;8.636;2023-03-14T07:03:10;11.20;99.90
59651;DHT22;45954;49.768;8.636;2023-03-14T07:05:36;11.10;99.90
59651;DHT22;45954;49.768;8.636;2023-03-14T07:08:01;11.20;99.90
59651;DHT22;45954;49.768;8.636;2023-03-14T07:10:27;11.30;99.90
59651;DHT22;45954;49.768;8.636;2023-03-14T07:12:53;11.20;99.90
59651;DHT22;45954;49.768;8.636;2023-03-14T07:15:20;11.20;99.90
59651;DHT22;45954;49.768;8.636;2023-03-14T07:17:46;11.20;99.90
59651;DHT22;45954;49.768;8.636;2023-03-14T07:20:16;11.30;99.90
59651;DHT22;45954;49.768;8.636;2023-03-14T07:22:42;11.30;99.90
59651;DHT22;45954;49.768;8.636;2023-03-14T07:25:08;11.50;99.90
59651;DHT22;45954;49.768;8.636;2023-03-14T07:27:37;11.60;99.90
59651;DHT22;45954;49.768;8.636;2023-03-14T07:30:04;11.50;99.90
59651;DHT22;45954;49.768;8.636;2023-03-14T07:32:30;11.50;99.90
59651;DHT22;45954;49.768;8.636;2023-03-14T07:34:56;11.50;99.90
59651;DHT22;45954;49.768;8.636;2023-03-14T07:37:22;11.40;99.90
59651;DHT22;45954;49.768;8.636;2023-03-14T07:39:48;11.40;99.90
59651;DHT22;45954;49.768;8.636;2023-03-14T07:42:13;11.50;99.90
59651;DHT22;45954;49.768;8.636;2023-03-14T07:44:39;11.50;99.90
59651;DHT22;45954;49.768;8.636;2023-03-14T07:47:05;11.50;99.90
59651;DHT22;45954;49.768;8.636;2023-03-14T07:49:31;11.60;99.90
59651;DHT22;45954;49.768;8.636;2023-03-14T07:51:57;11.60;99.90
59651;DHT22;45954;49.768;8.636;2023-03-14T07:54:23;11.60;99.90
59651;DHT22;45954;49.768;8.636;2023-03-14T07:56:51;11.70;99.90
59651;DHT22;45954;49.768;8.636;2023-03-14T07:59:18;11.80;99.90
59651;DHT22;45954;49.768;8.636;2023-03-14T08:01:44;11.80;99.90
59651;DHT22;45954;49.768;8.636;2023-03-14T08:04:10;11.80;99.90
59651;DHT22;45954;49.768;8.636;2023-03-14T08:06:36;11.80;99.90
59651;DHT22;45954;49.768;8.636;2023-03-14T08:09:03;11.80;99.90
59651;DHT22;45954;49.768;8.636;2023-03-14T08:11:30;11.70;99.90
59651;DHT22;45954;49.768;8.636;2023-03-14T08:13:56;11.80;99.90
59651;DHT22;45954;49.768;8.636;2023-03-14T08:16:22;11.90;99.90
59651;DHT22;45954;49.768;8.636;2023-03-14T08:18:48;11.80;99.90
59651;DHT22;45954;49.768;8.636;2023-03-14T08:21:14;11.90;99.90
59651;DHT22;45954;49.768;8.636;2023-03-14T08:23:40;11.90;99.90
59651;DHT22;45954;49.768;8.636;2023-03-14T08:26:07;11.90;99.90
59651;DHT22;45954;49.768;8.636;2023-03-14T08:28:33;11.90;99.90
59651;DHT22;45954;49.768;8.636;2023-03-14T08:31:00;11.90;99.90
59651;DHT22;45954;49.768;8.636;2023-03-14T08:33:28;11.90;99.90
59651;DHT22;45954;49.768;8.636;2023-03-14T08:35:57;11.90;99.90
59651;DHT22;45954;49.768;8.636;2023-03-14T08:38:24;11.90;99.90
59651;DHT22;45954;49.768;8.636;2023-03-14T08:40:56;11.90;99.90
59651;DHT22;45954;49.768;8.636;2023-03-14T08:43:23;12.10;99.90
59651;DHT22;45954;49.768;8.636;2023-03-14T08:45:49;12.10;99.90
59651;DHT22;45954;49.768;8.636;2023-03-14T08:48:15;12.10;99.90
59651;DHT22;45954;49.768;8.636;2023-03-14T08:50:41;12.20;99.90
59651;DHT22;45954;49.768;8.636;2023-03-14T08:53:07;12.30;99.90
59651;DHT22;45954;49.768;8.636;2023-03-14T08:55:33;12.30;99.90
59651;DHT22;45954;49.768;8.636;2023-03-14T08:57:58;12.30;99.90
59651;DHT22;45954;49.768;8.636;2023-03-14T09:00:24;12.30;99.90
59651;DHT22;45954;49.768;8.636;2023-03-14T09:02:50;12.30;99.90
59651;DHT22;45954;49.768;8.636;2023-03-14T09:05:16;12.30;99.90
59651;DHT22;45954;49.768;8.636;2023-03-14T09:07:42;12.30;99.90
59651;DHT22;45954;49.768;8.636;2023-03-14T09:10:09;12.40;99.90
59651;DHT22;45954;49.768;8.636;2023-03-14T09:12:35;12.40;99.90
59651;DHT22;45954;49.768;8.636;2023-03-14T09:15:01;12.30;99.90
59651;DHT22;45954;49.768;8.636;2023-03-14T09:17:28;12.30;99.90
59651;DHT22;45954;49.768;8.636;2023-03-14T09:19:53;12.30;99.90
59651;DHT22;45954;49.768;8.636;2023-03-14T09:22:19;12.40;99.90
59651;DHT22;45954;49.768;8.636;2023-03-14T09:24:46;12.30;99.90
59651;DHT22;45954;49.768;8.636;2023-03-14T09:27:12;12.30;99.90
59651;DHT22;45954;49.768;8.636;2023-03-14T09:29:37;12.40;99.90
59651;DHT22;45954;49.768;8.636;2023-03-14T09:32:04;12.50;99.90
59651;DHT22;45954;49.768;8.636;2023-03-14T09:34:30;12.60;99.90
59651;DHT22;45954;49.768;8.636;2023-03-14T09:36:56;12.50;99.90
59651;DHT22;45954;49.768;8.636;2023-03-14T09:39:22;12.40;99.90
59651;DHT22;45954;49.768;8.636;2023-03-14T09:41:51;12.40;99.90
59651;DHT22;45954;49.768;8.636;2023-03-14T09:47:10;12.30;99.90
59651;DHT22;45954;49.768;8.636;2023-03-14T09:49:40;12.30;99.90
59651;DHT22;45954;49.768;8.636;2023-03-14T09:52:31;12.30;99.90
59651;DHT22;45954;49.768;8.636;2023-03-14T09:55:19;12.30;99.90
59651;DHT22;45954;49.768;8.636;2023-03-14T09:57:49;12.10;99.90
59651;DHT22;45954;49.768;8.636;2023-03-14T10:00:23;12.20;99.90
59651;DHT22;45954;49.768;8.636;2023-03-14T10:05:41;12.30;99.90
59651;DHT22;45954;49.768;8.636;2023-03-14T10:08:11;12.40;99.90
59651;DHT22;45954;49.768;8.636;2023-03-14T10:10:38;12.30;99.90
59651;DHT22;45954;49.768;8.636;2023-03-14T10:13:23;12.40;99.90
59651;DHT22;45954;49.768;8.636;2023-03-14T10:16:03;12.30;99.90
59651;DHT22;45954;49.768;8.636;2023-03-14T10:18:33;12.20;99.90
59651;DHT22;45954;49.768;8.636;2023-03-14T10:21:06;12.30;99.90
59651;DHT22;45954;49.768;8.636;2023-03-14T10:24:22;12.30;99.90
59651;DHT22;45954;49.768;8.636;2023-03-14T10:27:03;12.40;99.90
59651;DHT22;45954;49.768;8.636;2023-03-14T10:29:33;12.40;99.90
59651;DHT22;45954;49.768;8.636;2023-03-14T10:32:05;12.20;99.90
59651;DHT22;45954;49.768;8.636;2023-03-14T10:34:38;12.10;99.90
59651;DHT22;45954;49.768;8.636;2023-03-14T10:37:18;12.10;99.90
59651;DHT22;45954;49.768;8.636;2023-03-14T10:39:53;12.20;99.90
59651;DHT22;45954;49.768;8.636;2023-03-14T10:42:25;12.20;99.90
59651;DHT22;45954;49.768;8.636;2023-03-14T10:45:02;12.10;99.90
59651;DHT22;45954;49.768;8.636;2023-03-14T10:47:32;12.10;99.90
59651;DHT22;45954;49.768;8.636;2023-03-14T10:50:28;12.10;99.90
59651;DHT22;45954;49.768;8.636;2023-03-14T10:52:56;12.10;99.90
59651;DHT22;45954;49.768;8.636;2023-03-14T10:55:24;12.00;99.90
59651;DHT22;45954;49.768;8.636;2023-03-14T10:57:52;12.00;99.90
59651;DHT22;45954;49.768;8.636;2023-03-14T11:00:23;12.00;99.90
59651;DHT22;45954;49.768;8.636;2023-03-14T11:03:08;12.00;99.90
59651;DHT22;45954;49.768;8.636;2023-03-14T11:06:09;12.00;99.90
59651;DHT22;45954;49.768;8.636;2023-03-14T11:11:32;12.00;99.90
59651;DHT22;45954;49.768;8.636;2023-03-14T11:14:21;11.80;99.90
59651;DHT22;45954;49.768;8.636;2023-03-14T11:17:02;11.80;99.90
59651;DHT22;45954;49.768;8.636;2023-03-14T11:23:22;11.70;99.90
59651;DHT22;45954;49.768;8.636;2023-03-14T11:26:01;11.70;99.90
59651;DHT22;45954;49.768;8.636;2023-03-14T11:28:36;11.80;99.90
59651;DHT22;45954;49.768;8.636;2023-03-14T11:31:33;11.80;99.90
59651;DHT22;45954;49.768;8.636;2023-03-14T11:36:59;11.60;99.90
59651;DHT22;45954;49.768;8.636;2023-03-14T11:39:40;11.60;99.90
59651;DHT22;45954;49.768;8.636;2023-03-14T11:42:14;11.60;99.90
59651;DHT22;45954;49.768;8.636;2023-03-14T11:44:46;11.60;99.90
59651;DHT22;45954;49.768;8.636;2023-03-14T11:47:39;11.60;99.90
59651;DHT22;45954;49.768;8.636;2023-03-14T11:50:25;11.60;99.90
59651;DHT22;45954;49.768;8.636;2023-03-14T11:53:04;11.60;99.90
59651;DHT22;45954;49.768;8.636;2023-03-14T11:55:42;11.60;99.90
59651;DHT22;45954;49.768;8.636;2023-03-14T11:58:29;11.60;99.90
59651;DHT22;45954;49.768;8.636;2023-03-14T12:01:05;11.70;99.90
59651;DHT22;45954;49.768;8.636;2023-03-14T12:06:47;11.70;99.90
59651;DHT22;45954;49.768;8.636;2023-03-14T12:09:18;11.70;99.90
59651;DHT22;45954;49.768;8.636;2023-03-14T12:12:01;11.70;99.90
59651;DHT22;45954;49.768;8.636;2023-03-14T12:14:35;11.40;99.90
59651;DHT22;45954;49.768;8.636;2023-03-14T12:17:18;11.40;99.90
59651;DHT22;45954;49.768;8.636;2023-03-14T12:19:47;11.40;99.90
59651;DHT22;45954;49.768;8.636;2023-03-14T12:22:27;11.40;99.90
59651;DHT22;45954;49.768;8.636;2023-03-14T12:25:06;11.40;99.90
59651;DHT22;45954;49.768;8.636;2023-03-14T12:28:02;11.40;99.90
59651;DHT22;45954;49.768;8.636;2023-03-14T12:30:36;11.40;99.90
59651;DHT22;45954;49.768;8.636;2023-03-14T12:33:27;11.30;99.90
59651;DHT22;45954;49.768;8.636;2023-03-14T12:35:59;11.30;99.90
59651;DHT22;45954;49.768;8.636;2023-03-14T12:41:21;11.20;99.90
59651;DHT22;45954;49.768;8.636;2023-03-14T12:43:52;11.10;99.90
59651;DHT22;45954;49.768;8.636;2023-03-14T12:48:49;10.90;99.90
59651;DHT22;45954;49.768;8.636;2023-03-14T12:51:27;11.00;99.90
59651;DHT22;45954;49.768;8.636;2023-03-14T13:00:23;11.20;99.90
59651;DHT22;45954;49.768;8.636;2023-03-14T13:03:17;11.20;99.90
59651;DHT22;45954;49.768;8.636;2023-03-14T13:05:57;11.20;99.90
59651;DHT22;45954;49.768;8.636;2023-03-14T13:08:44;11.20;99.90
59651;DHT22;45954;49.768;8.636;2023-03-14T13:11:16;11.10;99.90
59651;DHT22;45954;49.768;8.636;2023-03-14T13:13:57;11.10;99.90
59651;DHT22;45954;49.768;8.636;2023-03-14T13:16:25;11.10;99.90
59651;DHT22;45954;49.768;8.636;2023-03-14T13:19:02;11.10;99.90
59651;DHT22;45954;49.768;8.636;2023-03-14T13:21:35;10.90;99.90
59651;DHT22;45954;49.768;8.636;2023-03-14T13:24:26;10.90;99.90
59651;DHT22;45954;49.768;8.636;2023-03-14T13:26:56;10.70;99.90
59651;DHT22;45954;49.768;8.636;2023-03-14T13:29:30;10.70;99.90
59651;DHT22;45954;49.768;8.636;2023-03-14T13:32:00;10.80;99.90
59651;DHT22;45954;49.768;8.636;2023-03-14T13:34:33;10.90;99.90
59651;DHT22;45954;49.768;8.636;2023-03-14T13:37:00;10.90;99.90
59651;DHT22;45954;49.768;8.636;2023-03-14T13:39:28;11.00;99.90
59651;DHT22;45954;49.768;8.636;2023-03-14T13:42:01;11.00;99.90
59651;DHT22;45954;49.768;8.636;2023-03-14T13:44:34;10.80;99.90
59651;DHT22;45954;49.768;8.636;2023-03-14T13:47:05;10.60;99.90
59651;DHT22;45954;49.768;8.636;2023-03-14T13:49:37;10.60;99.90
59651;DHT22;45954;49.768;8.636;2023-03-14T13:52:22;10.50;99.90
59651;DHT22;45954;49.768;8.636;2023-03-14T13:54:56;10.30;99.90
59651;DHT22;45954;49.768;8.636;2023-03-14T13:57:23;10.20;99.90
59651;DHT22;45954;49.768;8.636;2023-03-14T14:00:07;10.10;99.90
59651;DHT22;45954;49.768;8.636;2023-03-14T14:02:42;10.20;99.90
59651;DHT22;45954;49.768;8.636;2023-03-14T14:05:11;10.10;99.90
59651;DHT22;45954;49.768;8.636;2023-03-14T14:07:37;10.10;99.90
59651;DHT22;45954;49.768;8.636;2023-03-14T14:10:05;10.20;99.90
59651;DHT22;45954;49.768;8.636;2023-03-14T14:12:52;10.20;99.90
59651;DHT22;45954;49.768;8.636;2023-03-14T14:15:31;10.10;99.90
59651;DHT22;45954;49.768;8.636;2023-03-14T14:18:09;10.30;99.90
59651;DHT22;45954;49.768;8.636;2023-03-14T14:20:41;10.10;99.90
59651;DHT22;45954;49.768;8.636;2023-03-14T14:23:35;10.20;99.90
59651;DHT22;45954;49.768;8.636;2023-03-14T14:26:04;10.20;99.90
59651;DHT22;45954;49.768;8.636;2023-03-14T14:28:34;10.20;99.90
59651;DHT22;45954;49.768;8.636;2023-03-14T14:31:02;10.30;99.90
59651;DHT22;45954;49.768;8.636;2023-03-14T14:34:03;10.40;99.90
59651;DHT22;45954;49.768;8.636;2023-03-14T14:36:39;10.80;99.90
59651;DHT22;45954;49.768;8.636;2023-03-14T14:39:20;11.10;99.40
59651;DHT22;45954;49.768;8.636;2023-03-14T14:41:51;10.90;99.40
59651;DHT22;45954;49.768;8.636;2023-03-14T14:44:29;11.00;99.10
59651;DHT22;45954;49.768;8.636;2023-03-14T14:46:57;10.80;98.80
59651;DHT22;45954;49.768;8.636;2023-03-14T14:49:30;10.70;99.30
59651;DHT22;45954;49.768;8.636;2023-03-14T14:52:04;10.70;99.10
59651;DHT22;45954;49.768;8.636;2023-03-14T14:54:40;10.50;99.60
59651;DHT22;45954;49.768;8.636;2023-03-14T14:57:39;10.50;99.90
59651;DHT22;45954;49.768;8.636;2023-03-14T15:00:19;10.40;99.90
59651;DHT22;45954;49.768;8.636;2023-03-14T15:02:48;10.20;99.90
59651;DHT22;45954;49.768;8.636;2023-03-14T15:05:23;10.10;99.90
59651;DHT22;45954;49.768;8.636;2023-03-14T15:07:51;9.90;99.00
59651;DHT22;45954;49.768;8.636;2023-03-14T15:10:23;9.90;99.30
59651;DHT22;45954;49.768;8.636;2023-03-14T15:12:50;9.90;98.80
59651;DHT22;45954;49.768;8.636;2023-03-14T15:15:17;9.70;98.50
59651;DHT22;45954;49.768;8.636;2023-03-14T15:17:44;9.80;98.90
59651;DHT22;45954;49.768;8.636;2023-03-14T15:20:13;9.80;98.80
59651;DHT22;45954;49.768;8.636;2023-03-14T15:22:41;9.90;99.00
59651;DHT22;45954;49.768;8.636;2023-03-14T15:25:08;10.10;98.30
59651;DHT22;45954;49.768;8.636;2023-03-14T15:27:36;10.00;97.10
59651;DHT22;45954;49.768;8.636;2023-03-14T15:30:12;10.00;97.50
59651;DHT22;45954;49.768;8.636;2023-03-14T15:32:39;10.00;97.50
59651;DHT22;45954;49.768;8.636;2023-03-14T15:35:05;10.10;97.50
59651;DHT22;45954;49.768;8.636;2023-03-14T15:37:31;10.20;98.20
59651;DHT22;45954;49.768;8.636;2023-03-14T15:39:57;10.20;97.30
59651;DHT22;45954;49.768;8.636;2023-03-14T15:42:23;10.10;97.10
59651;DHT22;45954;49.768;8.636;2023-03-14T15:44:49;10.10;96.30
59651;DHT22;45954;49.768;8.636;2023-03-14T15:47:15;10.10;96.20
59651;DHT22;45954;49.768;8.636;2023-03-14T15:49:41;10.10;96.00
59651;DHT22;45954;49.768;8.636;2023-03-14T15:52:07;10.30;95.60
59651;DHT22;45954;49.768;8.636;2023-03-14T15:54:34;10.50;95.30
59651;DHT22;45954;49.768;8.636;2023-03-14T15:57:00;11.10;94.50
59651;DHT22;45954;49.768;8.636;2023-03-14T15:59:26;11.40;94.70
59651;DHT22;45954;49.768;8.636;2023-03-14T16:01:52;11.50;93.60
59651;DHT22;45954;49.768;8.636;2023-03-14T16:04:18;11.70;94.00
59651;DHT22;45954;49.768;8.636;2023-03-14T16:06:44;11.90;94.30
59651;DHT22;45954;49.768;8.636;2023-03-14T16:09:14;12.40;93.60
59651;DHT22;45954;49.768;8.636;2023-03-14T16:11:40;12.10;92.30
59651;DHT22;45954;49.768;8.636;2023-03-14T16:14:05;12.00;92.70
59651;DHT22;45954;49.768;8.636;2023-03-14T16:16:32;12.10;92.70
59651;DHT22;45954;49.768;8.636;2023-03-14T16:18:58;11.80;92.90
59651;DHT22;45954;49.768;8.636;2023-03-14T16:21:24;11.80;93.20